Time;durP1;ratioP1;P1;durP2;ratioP2;P2;SDS_P1;SDS_P2;PMS_P1;PMS_P2;Temp;Humidity;BMP_temperature;BMP_pressure;BME280_temperature;BME280_humidity;BME280_pressure;Samples;Min_cycle;Max_cycle;Signal;HPM_P1;HPM_P2
2022/11/08 00:01:46;;;;;;;2.20;1.40;;;;;;;;;;4937856;28;20657;-86
2022/11/08 00:04:12;;;;;;;1.63;1.10;;;;;;;;;;4925950;28;20233;-86
2022/11/08 00:14:53;;;;;;;1.58;1.10;;;;;;;;;;4940872;28;20225;-86
2022/11/08 00:17:23;;;;;;;1.27;0.93;;;;;;;;;;4950741;28;20232;-87
2022/11/08 00:19:51;;;;;;;4.97;1.50;;;;;;;;;;4934316;28;20361;-85
2022/11/08 00:22:16;;;;;;;3.13;1.00;;;;;;;;;;4943418;28;20223;-83
2022/11/08 00:24:42;;;;;;;2.40;1.20;;;;;;;;;;4945440;29;20234;-84
2022/11/08 00:27:25;;;;;;;6.93;1.30;;;;;;;;;;4922686;28;20222;-85
2022/11/08 00:29:53;;;;;;;2.20;1.10;;;;;;;;;;4929268;28;20229;-86
2022/11/08 00:32:23;;;;;;;4.73;1.50;;;;;;;;;;4923234;28;20313;-86
2022/11/08 00:34:49;;;;;;;2.80;1.40;;;;;;;;;;4951468;28;20763;-86
2022/11/08 00:37:17;;;;;;;2.43;1.40;;;;;;;;;;4955414;28;20226;-88
2022/11/08 00:39:42;;;;;;;2.20;1.40;;;;;;;;;;4929230;28;20298;-84
2022/11/08 00:42:08;;;;;;;2.60;1.40;;;;;;;;;;4923001;28;20245;-82
2022/11/08 00:44:33;;;;;;;1.37;1.00;;;;;;;;;;4916823;28;20232;-86
2022/11/08 00:47:01;;;;;;;2.27;1.13;;;;;;;;;;4925379;28;20211;-85
2022/11/08 00:49:29;;;;;;;2.23;1.27;;;;;;;;;;4943050;28;20222;-87
2022/11/08 00:51:57;;;;;;;2.15;1.08;;;;;;;;;;4908102;28;20225;-87
2022/11/08 00:54:25;;;;;;;2.40;1.33;;;;;;;;;;4910180;28;20253;-87
2022/11/08 00:56:53;;;;;;;3.87;1.47;;;;;;;;;;4913505;28;20219;-84
2022/11/08 00:59:18;;;;;;;3.00;1.40;;;;;;;;;;4959342;28;20225;-87
2022/11/08 01:01:46;;;;;;;2.30;1.20;;;;;;;;;;4911862;29;20309;-85
2022/11/08 01:04:12;;;;;;;2.03;1.23;;;;;;;;;;4899723;28;20262;-86
2022/11/08 01:06:41;;;;;;;2.67;1.30;;;;;;;;;;4926223;28;20244;-86
2022/11/08 01:09:09;;;;;;;3.30;1.40;;;;;;;;;;4956679;28;20221;-83
2022/11/08 01:11:36;;;;;;;2.57;1.33;;;;;;;;;;4946887;28;20327;-84
2022/11/08 01:14:01;;;;;;;2.30;1.33;;;;;;;;;;4931177;29;20237;-88
2022/11/08 01:16:28;;;;;;;2.03;1.10;;;;;;;;;;4928011;28;20223;-88
2022/11/08 01:18:54;;;;;;;5.00;1.67;;;;;;;;;;4931761;28;20218;-86
2022/11/08 01:21:20;;;;;;;2.63;1.00;;;;;;;;;;4934892;28;20742;-88
2022/11/08 01:23:53;;;;;;;2.53;1.37;;;;;;;;;;4936203;29;20313;-84
2022/11/08 01:26:22;;;;;;;2.23;1.13;;;;;;;;;;4927913;28;20254;-85
2022/11/08 01:28:48;;;;;;;2.67;1.13;;;;;;;;;;4923780;29;20219;-84
2022/11/08 01:31:32;;;;;;;3.00;2.23;;;;;;;;;;4915338;28;20237;-87
2022/11/08 01:33:58;;;;;;;5.60;4.80;;;;;;;;;;4947892;28;20253;-86
2022/11/08 01:36:29;;;;;;;3.20;2.23;;;;;;;;;;4914934;28;20293;-86
2022/11/08 01:38:55;;;;;;;2.57;1.20;;;;;;;;;;4929164;28;20246;-86
2022/11/08 01:41:21;;;;;;;3.23;1.20;;;;;;;;;;4928433;28;20242;-85
2022/11/08 01:43:53;;;;;;;3.47;1.27;;;;;;;;;;4932180;29;20246;-88
2022/11/08 01:46:40;;;;;;;3.30;1.30;;;;;;;;;;4937784;28;20281;-86
2022/11/08 01:49:14;;;;;;;2.17;1.57;;;;;;;;;;4933286;28;20703;-88
2022/11/08 01:51:58;;;;;;;1.80;1.20;;;;;;;;;;4948866;28;20221;-87
2022/11/08 01:54:31;;;;;;;3.27;1.23;;;;;;;;;;4949171;28;20235;-86
2022/11/08 01:56:59;;;;;;;2.77;1.20;;;;;;;;;;4936057;28;20386;-85
2022/11/08 01:59:25;;;;;;;3.10;1.27;;;;;;;;;;4931381;28;20329;-85
2022/11/08 02:01:53;;;;;;;2.57;1.70;;;;;;;;;;4962905;28;20222;-87
2022/11/08 02:04:21;;;;;;;3.80;1.50;;;;;;;;;;4924595;28;20224;-84
2022/11/08 02:06:47;;;;;;;1.70;1.23;;;;;;;;;;4927626;28;20314;-87
2022/11/08 02:09:13;;;;;;;2.90;1.43;;;;;;;;;;4931948;28;20225;-85
2022/11/08 02:11:38;;;;;;;3.27;1.20;;;;;;;;;;4910922;28;20595;-87
2022/11/08 02:14:08;;;;;;;1.57;1.27;;;;;;;;;;4929268;28;20227;-87
2022/11/08 02:16:34;;;;;;;3.60;1.60;;;;;;;;;;4936845;28;20226;-85
2022/11/08 02:19:00;;;;;;;4.17;1.70;;;;;;;;;;4943157;28;20240;-86
2022/11/08 02:21:37;;;;;;;3.93;1.40;;;;;;;;;;4928401;28;20645;-84
2022/11/08 02:24:11;;;;;;;2.50;1.40;;;;;;;;;;4957131;28;20250;-87
2022/11/08 02:26:37;;;;;;;2.60;1.53;;;;;;;;;;4953061;28;20222;-86
2022/11/08 02:29:22;;;;;;;3.23;1.50;;;;;;;;;;4947605;28;20245;-86
2022/11/08 02:31:47;;;;;;;3.73;1.60;;;;;;;;;;4961335;28;20225;-87
2022/11/08 02:34:15;;;;;;;4.57;1.50;;;;;;;;;;4931018;28;20230;-85
2022/11/08 02:36:46;;;;;;;2.67;1.50;;;;;;;;;;4912908;28;20232;-86
2022/11/08 02:39:11;;;;;;;1.67;1.40;;;;;;;;;;4922180;28;20230;-88
2022/11/08 02:41:37;;;;;;;2.23;1.20;;;;;;;;;;4914241;29;20218;-85
2022/11/08 02:44:08;;;;;;;2.80;1.40;;;;;;;;;;4925978;28;20237;-84
2022/11/08 02:46:34;;;;;;;3.17;1.70;;;;;;;;;;4934166;28;20226;-83
2022/11/08 02:48:59;;;;;;;3.23;1.40;;;;;;;;;;4930985;28;20300;-84
2022/11/08 02:51:25;;;;;;;3.53;1.53;;;;;;;;;;4927260;28;20226;-85
2022/11/08 02:53:53;;;;;;;4.40;1.37;;;;;;;;;;4911247;29;20242;-85
2022/11/08 02:56:18;;;;;;;7.17;1.40;;;;;;;;;;4917940;28;20234;-88
2022/11/08 02:58:44;;;;;;;3.17;1.60;;;;;;;;;;4913258;28;20298;-87
2022/11/08 03:01:14;;;;;;;2.43;1.27;;;;;;;;;;4928341;28;20218;-83
2022/11/08 03:03:41;;;;;;;3.83;1.50;;;;;;;;;;4919555;28;20230;-86
2022/11/08 03:06:07;;;;;;;3.70;1.53;;;;;;;;;;4936723;28;20225;-86
2022/11/08 03:08:32;;;;;;;2.93;1.47;;;;;;;;;;4928292;28;20284;-84
2022/11/08 03:11:01;;;;;;;4.07;1.27;;;;;;;;;;4922330;28;20218;-87
2022/11/08 03:13:28;;;;;;;3.47;1.47;;;;;;;;;;4911239;28;20240;-87
2022/11/08 03:15:56;;;;;;;1.93;1.27;;;;;;;;;;4928215;28;20203;-89
2022/11/08 03:18:22;;;;;;;3.07;1.53;;;;;;;;;;4910293;28;20233;-85
2022/11/08 03:20:47;;;;;;;2.23;1.50;;;;;;;;;;4904912;28;20215;-85
2022/11/08 03:23:13;;;;;;;6.33;1.80;;;;;;;;;;4908101;28;20223;-87
2022/11/08 03:25:41;;;;;;;3.43;1.57;;;;;;;;;;4926265;28;20222;-85
2022/11/08 03:28:07;;;;;;;3.80;1.70;;;;;;;;;;4927642;28;20244;-85
2022/11/08 03:30:35;;;;;;;3.73;1.53;;;;;;;;;;4959266;28;20226;-84
2022/11/08 03:33:03;;;;;;;3.13;1.50;;;;;;;;;;4925489;28;20227;-86
2022/11/08 03:35:28;;;;;;;3.10;1.50;;;;;;;;;;4945088;28;20224;-86
2022/11/08 03:37:55;;;;;;;2.63;1.40;;;;;;;;;;4944922;28;20206;-86
2022/11/08 03:40:20;;;;;;;4.47;1.50;;;;;;;;;;4958480;28;20225;-84
2022/11/08 03:42:46;;;;;;;4.97;1.57;;;;;;;;;;4953859;28;20222;-85
2022/11/08 03:45:12;;;;;;;4.20;1.60;;;;;;;;;;4931287;28;20239;-85
2022/11/08 03:50:13;;;;;;;3.50;1.50;;;;;;;;;;4989922;23;20237;-87
2022/11/08 03:52:43;;;;;;;2.07;1.27;;;;;;;;;;4947531;28;20230;-84
2022/11/08 03:55:11;;;;;;;2.33;1.47;;;;;;;;;;4929446;29;20304;-83
2022/11/08 03:57:40;;;;;;;2.83;1.70;;;;;;;;;;4940095;28;20279;-86
2022/11/08 04:00:08;;;;;;;3.60;1.67;;;;;;;;;;4935394;29;20668;-83
2022/11/08 04:02:39;;;;;;;3.57;1.70;;;;;;;;;;4913725;28;20239;-85
2022/11/08 04:05:06;;;;;;;2.80;1.50;;;;;;;;;;4920526;29;20244;-86
2022/11/08 04:07:33;;;;;;;3.43;1.77;;;;;;;;;;4912761;28;20228;-85
2022/11/08 04:09:59;;;;;;;2.43;1.60;;;;;;;;;;4936081;28;20291;-87
2022/11/08 04:15:14;;;;;;;4.37;1.70;;;;;;;;;;4928060;28;20290;-84
2022/11/08 04:23:12;;;;;;;3.00;1.80;;;;;;;;;;4931990;29;20287;-84
2022/11/08 04:25:37;;;;;;;4.03;1.60;;;;;;;;;;4930816;29;20228;-84
2022/11/08 04:28:03;;;;;;;2.73;1.57;;;;;;;;;;4936914;29;20594;-83
2022/11/08 04:30:29;;;;;;;4.20;1.80;;;;;;;;;;4932065;29;20223;-87
2022/11/08 04:32:54;;;;;;;4.80;1.60;;;;;;;;;;4930054;29;20219;-87
2022/11/08 04:35:19;;;;;;;3.47;1.60;;;;;;;;;;4891698;29;20239;-84
2022/11/08 04:37:45;;;;;;;3.13;1.60;;;;;;;;;;4946191;29;20754;-87
2022/11/08 04:40:13;;;;;;;3.53;1.73;;;;;;;;;;4927963;29;20215;-85
2022/11/08 04:42:45;;;;;;;4.03;1.53;;;;;;;;;;4928540;29;20250;-85
2022/11/08 04:45:14;;;;;;;4.60;1.80;;;;;;;;;;4933796;29;20212;-84
2022/11/08 04:47:46;;;;;;;5.97;1.93;;;;;;;;;;4915672;29;20251;-83
2022/11/08 04:50:12;;;;;;;2.30;1.53;;;;;;;;;;4927259;29;20251;-83
2022/11/08 04:52:40;;;;;;;5.60;1.90;;;;;;;;;;4931580;29;20232;-84
2022/11/08 04:55:06;;;;;;;3.60;1.50;;;;;;;;;;4927970;29;20251;-84
2022/11/08 04:57:36;;;;;;;3.77;1.60;;;;;;;;;;4932802;29;20290;-84
2022/11/08 05:00:04;;;;;;;2.57;1.80;;;;;;;;;;4934327;29;20279;-83
2022/11/08 05:02:30;;;;;;;4.33;1.80;;;;;;;;;;4911239;29;20229;-84
2022/11/08 05:04:56;;;;;;;4.67;1.70;;;;;;;;;;4917890;29;20244;-84
2022/11/08 05:07:22;;;;;;;4.40;1.77;;;;;;;;;;4915311;29;20232;-83
2022/11/08 05:09:47;;;;;;;2.77;1.53;;;;;;;;;;4908485;29;20225;-85
2022/11/08 05:12:16;;;;;;;3.37;1.60;;;;;;;;;;4911984;29;20296;-83
2022/11/08 05:14:43;;;;;;;4.37;1.70;;;;;;;;;;4920273;29;20224;-83
2022/11/08 05:17:14;;;;;;;3.37;1.60;;;;;;;;;;4921455;29;20227;-84
2022/11/08 05:25:12;;;;;;;4.03;1.70;;;;;;;;;;4923399;29;20239;-83
2022/11/08 05:27:38;;;;;;;5.10;1.67;;;;;;;;;;4907876;29;20232;-83
2022/11/08 05:30:04;;;;;;;5.47;2.37;;;;;;;;;;4908872;29;20272;-84
2022/11/08 05:32:29;;;;;;;3.53;1.70;;;;;;;;;;4909548;29;20299;-84
2022/11/08 05:34:57;;;;;;;5.13;2.00;;;;;;;;;;4913158;29;20224;-84
2022/11/08 05:37:25;;;;;;;5.33;1.90;;;;;;;;;;4920459;29;20219;-85
2022/11/08 05:39:50;;;;;;;3.93;2.00;;;;;;;;;;4912811;29;20235;-82
2022/11/08 05:42:16;;;;;;;3.37;1.87;;;;;;;;;;4930666;29;20366;-85
2022/11/08 05:44:41;;;;;;;2.10;1.60;;;;;;;;;;4933297;29;20220;-83
2022/11/08 05:47:07;;;;;;;3.73;1.70;;;;;;;;;;4906570;29;20246;-83
2022/11/08 05:49:35;;;;;;;4.47;2.70;;;;;;;;;;4932050;29;20287;-84
2022/11/08 05:52:05;;;;;;;3.13;1.97;;;;;;;;;;4917335;29;20287;-83
2022/11/08 05:54:33;;;;;;;3.40;1.80;;;;;;;;;;4945511;29;20208;-83
2022/11/08 05:57:01;;;;;;;3.30;1.93;;;;;;;;;;4920623;29;20271;-81
2022/11/08 05:59:27;;;;;;;4.23;2.23;;;;;;;;;;4935634;29;21102;-84
2022/11/08 06:01:52;;;;;;;3.03;1.67;;;;;;;;;;4924189;29;20263;-85
2022/11/08 06:04:18;;;;;;;6.20;1.57;;;;;;;;;;4946286;29;20240;-82
2022/11/08 06:06:43;;;;;;;2.47;1.80;;;;;;;;;;4934021;29;20259;-84
2022/11/08 06:09:12;;;;;;;5.50;2.03;;;;;;;;;;4949363;28;20232;-83
2022/11/08 06:11:38;;;;;;;3.77;1.70;;;;;;;;;;4918779;29;20250;-84
2022/11/08 06:14:06;;;;;;;2.73;1.87;;;;;;;;;;4941536;29;20236;-84
2022/11/08 06:16:31;;;;;;;3.50;1.63;;;;;;;;;;4924066;29;20243;-83
2022/11/08 06:18:57;;;;;;;3.47;1.90;;;;;;;;;;4932264;29;20263;-81
2022/11/08 06:21:22;;;;;;;4.37;1.73;;;;;;;;;;4950230;29;20262;-85
2022/11/08 06:23:51;;;;;;;3.93;1.90;;;;;;;;;;4921295;29;20243;-83
2022/11/08 06:26:16;;;;;;;3.43;1.70;;;;;;;;;;4907133;29;20223;-84
2022/11/08 06:28:47;;;;;;;3.13;1.53;;;;;;;;;;4921316;29;20324;-85
2022/11/08 06:31:12;;;;;;;3.40;1.60;;;;;;;;;;4906982;29;20218;-85
2022/11/08 06:33:40;;;;;;;5.80;1.83;;;;;;;;;;4920189;29;20232;-85
2022/11/08 06:36:06;;;;;;;4.20;1.73;;;;;;;;;;4942745;29;20219;-83
2022/11/08 06:38:31;;;;;;;1.90;1.47;;;;;;;;;;4925004;29;20227;-84
2022/11/08 06:41:03;;;;;;;3.93;1.80;;;;;;;;;;4939048;29;20216;-84
2022/11/08 06:43:33;;;;;;;5.03;1.90;;;;;;;;;;4933892;29;20289;-84
2022/11/08 06:46:00;;;;;;;5.03;1.90;;;;;;;;;;4936480;29;20248;-84
2022/11/08 06:48:25;;;;;;;3.73;1.90;;;;;;;;;;4948494;29;20228;-83
2022/11/08 06:50:51;;;;;;;3.73;1.60;;;;;;;;;;4915937;29;20230;-83
2022/11/08 06:53:20;;;;;;;3.60;1.83;;;;;;;;;;4934438;28;20220;-82
2022/11/08 06:55:45;;;;;;;3.10;1.70;;;;;;;;;;4921623;28;20223;-84
2022/11/08 06:58:13;;;;;;;2.87;1.80;;;;;;;;;;4907228;29;20459;-82
2022/11/08 07:00:41;;;;;;;2.53;1.37;;;;;;;;;;4945629;29;20216;-81
2022/11/08 07:03:06;;;;;;;4.93;2.10;;;;;;;;;;4932290;29;20240;-83
2022/11/08 07:05:32;;;;;;;2.87;1.77;;;;;;;;;;4924225;29;20462;-83
2022/11/08 07:08:00;;;;;;;5.37;2.60;;;;;;;;;;4937471;29;20288;-83
2022/11/08 07:10:29;;;;;;;3.57;1.90;;;;;;;;;;4938009;29;20235;-83
2022/11/08 07:13:08;;;;;;;4.13;1.63;;;;;;;;;;4935048;29;20239;-83
2022/11/08 07:15:37;;;;;;;3.43;1.90;;;;;;;;;;4935125;29;20868;-84
2022/11/08 07:18:07;;;;;;;3.67;2.43;;;;;;;;;;4939203;29;20243;-82
2022/11/08 07:20:32;;;;;;;3.20;1.90;;;;;;;;;;4917066;29;20284;-82
2022/11/08 07:22:58;;;;;;;4.93;1.40;;;;;;;;;;4928234;29;20239;-82
2022/11/08 07:25:23;;;;;;;5.03;1.80;;;;;;;;;;4913782;28;20290;-82
2022/11/08 07:27:49;;;;;;;3.30;1.90;;;;;;;;;;4943713;29;20227;-83
2022/11/08 07:30:14;;;;;;;6.50;2.00;;;;;;;;;;4888046;29;20291;-83
2022/11/08 07:32:40;;;;;;;3.30;2.00;;;;;;;;;;4915903;29;20224;-83
2022/11/08 07:35:06;;;;;;;2.00;1.43;;;;;;;;;;4941172;29;20267;-83
2022/11/08 07:37:32;;;;;;;5.10;1.83;;;;;;;;;;4900723;29;20285;-84
2022/11/08 07:39:57;;;;;;;4.70;1.70;;;;;;;;;;4918142;29;20221;-84
2022/11/08 07:42:25;;;;;;;4.03;1.77;;;;;;;;;;4905923;29;20224;-84
2022/11/08 07:45:06;;;;;;;3.60;1.90;;;;;;;;;;4906713;29;20235;-84
2022/11/08 07:47:34;;;;;;;6.37;1.80;;;;;;;;;;4893699;28;20313;-83
2022/11/08 07:50:01;;;;;;;3.73;1.80;;;;;;;;;;4900605;29;20232;-84
2022/11/08 07:52:27;;;;;;;4.07;2.00;;;;;;;;;;4923931;29;20232;-83
2022/11/08 07:54:52;;;;;;;4.33;2.10;;;;;;;;;;4931842;29;20232;-85
2022/11/08 07:57:19;;;;;;;3.20;1.83;;;;;;;;;;4903110;29;20257;-83
2022/11/08 07:59:47;;;;;;;2.80;1.70;;;;;;;;;;4930327;28;20587;-83
2022/11/08 08:02:15;;;;;;;2.30;1.50;;;;;;;;;;4920374;29;20227;-84
2022/11/08 08:04:40;;;;;;;2.97;1.80;;;;;;;;;;4933141;28;20220;-85
2022/11/08 08:07:12;;;;;;;3.40;1.70;;;;;;;;;;4935296;28;20207;-84
2022/11/08 08:09:40;;;;;;;2.57;1.73;;;;;;;;;;4940174;28;20227;-84
2022/11/08 08:12:10;;;;;;;3.63;1.73;;;;;;;;;;4935974;28;20238;-84
2022/11/08 08:14:36;;;;;;;3.90;1.80;;;;;;;;;;4926637;29;20227;-83
2022/11/08 08:17:01;;;;;;;2.93;1.50;;;;;;;;;;4921531;29;20223;-83
2022/11/08 08:19:27;;;;;;;3.33;1.47;;;;;;;;;;4930864;29;21168;-83
2022/11/08 08:21:52;;;;;;;2.47;1.67;;;;;;;;;;4888836;29;20239;-85
2022/11/08 08:24:21;;;;;;;2.53;1.63;;;;;;;;;;4906160;29;20220;-84
2022/11/08 08:26:46;;;;;;;3.63;1.90;;;;;;;;;;4935589;29;20238;-85
2022/11/08 08:29:15;;;;;;;3.80;1.87;;;;;;;;;;4917669;29;20215;-84
2022/11/08 08:31:40;;;;;;;3.33;1.50;;;;;;;;;;4951100;29;20230;-83
2022/11/08 08:34:06;;;;;;;3.17;1.70;;;;;;;;;;4932645;29;20339;-86
2022/11/08 08:36:31;;;;;;;3.73;1.77;;;;;;;;;;4926659;29;20259;-82
2022/11/08 08:38:57;;;;;;;2.97;1.37;;;;;;;;;;4944741;29;20237;-84
2022/11/08 08:41:22;;;;;;;3.20;1.70;;;;;;;;;;4906460;29;20290;-83
2022/11/08 08:43:50;;;;;;;2.00;1.53;;;;;;;;;;4935035;29;20338;-84
2022/11/08 08:46:19;;;;;;;1.83;1.33;;;;;;;;;;4920926;29;20246;-83
2022/11/08 08:48:44;;;;;;;3.43;1.47;;;;;;;;;;4938220;29;20286;-83
2022/11/08 08:51:14;;;;;;;2.37;1.63;;;;;;;;;;4936460;29;20321;-83
2022/11/08 08:53:42;;;;;;;3.23;1.73;;;;;;;;;;4944050;29;20796;-84
2022/11/08 08:56:08;;;;;;;2.33;1.60;;;;;;;;;;4920870;29;20235;-82
2022/11/08 08:58:33;;;;;;;3.17;1.53;;;;;;;;;;4921747;29;20221;-83
2022/11/08 09:01:03;;;;;;;2.97;1.83;;;;;;;;;;4911615;29;20279;-84
2022/11/08 09:03:30;;;;;;;3.03;1.30;;;;;;;;;;4934162;29;20243;-81
2022/11/08 09:05:59;;;;;;;1.93;1.20;;;;;;;;;;4931779;29;20215;-82
2022/11/08 09:08:25;;;;;;;1.87;1.30;;;;;;;;;;4915177;29;20263;-83
2022/11/08 09:10:57;;;;;;;2.33;1.30;;;;;;;;;;4917780;29;20224;-83
2022/11/08 09:13:26;;;;;;;3.60;1.40;;;;;;;;;;4928271;29;20240;-82
2022/11/08 09:15:53;;;;;;;2.37;1.47;;;;;;;;;;4931310;29;20236;-82
2022/11/08 09:18:21;;;;;;;1.50;1.20;;;;;;;;;;4932733;28;20239;-82
2022/11/08 09:20:49;;;;;;;4.77;1.67;;;;;;;;;;4937608;29;20207;-82
2022/11/08 09:23:17;;;;;;;2.10;1.50;;;;;;;;;;4921830;29;20252;-83
2022/11/08 09:25:43;;;;;;;4.00;1.67;;;;;;;;;;4938843;29;20235;-83
2022/11/08 09:28:21;;;;;;;1.90;1.60;;;;;;;;;;4915606;29;20224;-83
2022/11/08 09:30:46;;;;;;;2.17;1.50;;;;;;;;;;4941715;29;20227;-84
2022/11/08 09:33:12;;;;;;;4.07;1.67;;;;;;;;;;4925418;29;20238;-83
2022/11/08 09:35:39;;;;;;;3.03;1.37;;;;;;;;;;4922957;29;20223;-82
2022/11/08 09:38:06;;;;;;;1.80;1.30;;;;;;;;;;4949328;29;20242;-81
2022/11/08 09:40:41;;;;;;;3.43;1.60;;;;;;;;;;4940051;29;20227;-81
2022/11/08 09:43:38;;;;;;;2.67;1.40;;;;;;;;;;4932565;29;20207;-82
2022/11/08 09:46:03;;;;;;;1.87;1.43;;;;;;;;;;4907905;29;20693;-84
2022/11/08 09:48:34;;;;;;;3.05;1.65;;;;;;;;;;4913235;29;20779;-83
2022/11/08 09:51:06;;;;;;;2.55;1.30;;;;;;;;;;4905172;29;20224;-84
2022/11/08 09:53:35;;;;;;;2.83;1.40;;;;;;;;;;4911745;29;20236;-83
2022/11/08 09:56:26;;;;;;;2.83;1.40;;;;;;;;;;4935348;29;20724;-84
2022/11/08 09:59:02;;;;;;;2.30;1.35;;;;;;;;;;4915062;29;20668;-85
2022/11/08 10:01:33;;;;;;;2.47;1.17;;;;;;;;;;4922782;29;20227;-86
2022/11/08 10:04:06;;;;;;;1.92;1.20;;;;;;;;;;4900705;29;20220;-84
2022/11/08 10:06:37;;;;;;;1.90;1.30;;;;;;;;;;4907926;29;20221;-82
2022/11/08 10:09:20;;;;;;;2.10;1.33;;;;;;;;;;4928244;29;20228;-82
2022/11/08 10:12:00;;;;;;;1.65;0.90;;;;;;;;;;4934428;29;20223;-82
2022/11/08 10:15:04;;;;;;;1.65;1.15;;;;;;;;;;4925908;29;20838;-81
2022/11/08 10:18:01;;;;;;;3.30;1.50;;;;;;;;;;4925935;29;20251;-83
2022/11/08 10:21:01;;;;;;;5.15;1.30;;;;;;;;;;4928749;29;20239;-84
2022/11/08 10:23:36;;;;;;;1.90;1.10;;;;;;;;;;4928817;29;20235;-83
2022/11/08 10:26:05;;;;;;;3.40;0.95;;;;;;;;;;4908136;29;20235;-82
2022/11/08 10:28:36;;;;;;;2.95;1.20;;;;;;;;;;4918703;29;20236;-84
2022/11/08 10:31:04;;;;;;;3.15;1.20;;;;;;;;;;4920720;29;20231;-84
2022/11/08 10:33:52;;;;;;;2.15;1.13;;;;;;;;;;4921180;29;20239;-84
2022/11/08 10:36:37;;;;;;;2.33;0.90;;;;;;;;;;4919899;29;20236;-84
2022/11/08 10:39:03;;;;;;;1.48;0.90;;;;;;;;;;4905725;29;20224;-83
2022/11/08 10:41:31;;;;;;;1.85;1.10;;;;;;;;;;4889121;29;20251;-81
2022/11/08 10:44:06;;;;;;;1.75;1.00;;;;;;;;;;4924869;29;20251;-82
2022/11/08 10:46:42;;;;;;;1.02;0.80;;;;;;;;;;4920647;29;20232;-83
2022/11/08 10:49:15;;;;;;;1.20;0.85;;;;;;;;;;4883608;29;20238;-85
2022/11/08 10:51:45;;;;;;;1.13;0.80;;;;;;;;;;4911576;29;20231;-82
2022/11/08 10:54:42;;;;;;;2.78;1.20;;;;;;;;;;4924192;29;20247;-81
2022/11/08 10:57:09;;;;;;;2.67;1.13;;;;;;;;;;4916630;29;20231;-83
2022/11/08 10:59:35;;;;;;;1.65;1.13;;;;;;;;;;4928907;29;20247;-82
2022/11/08 11:02:00;;;;;;;1.02;0.80;;;;;;;;;;4914009;29;20605;-84
2022/11/08 11:04:29;;;;;;;1.48;0.98;;;;;;;;;;4906377;29;20509;-83
2022/11/08 11:07:00;;;;;;;2.47;1.00;;;;;;;;;;4911245;29;20299;-79
2022/11/08 11:09:28;;;;;;;2.22;1.13;;;;;;;;;;4906426;29;20227;-82
2022/11/08 11:12:01;;;;;;;2.40;1.23;;;;;;;;;;4910646;29;20220;-81
2022/11/08 11:14:29;;;;;;;0.85;0.82;;;;;;;;;;4923994;28;20689;-82
2022/11/08 11:17:13;;;;;;;1.25;1.05;;;;;;;;;;4917235;29;20292;-80
2022/11/08 11:19:38;;;;;;;2.20;0.90;;;;;;;;;;4905703;29;20232;-83
2022/11/08 11:22:06;;;;;;;1.73;1.10;;;;;;;;;;4910550;29;20373;-82
2022/11/08 11:24:37;;;;;;;1.25;0.90;;;;;;;;;;4907872;29;20229;-81
2022/11/08 11:27:05;;;;;;;1.90;1.00;;;;;;;;;;4912907;29;20228;-82
2022/11/08 11:29:32;;;;;;;2.15;0.93;;;;;;;;;;4905861;29;20241;-81
2022/11/08 11:32:00;;;;;;;2.95;1.02;;;;;;;;;;4884222;29;20245;-82
2022/11/08 11:34:36;;;;;;;1.25;0.88;;;;;;;;;;4917156;29;20256;-79
2022/11/08 11:37:09;;;;;;;2.47;0.85;;;;;;;;;;4931579;29;20256;-83
2022/11/08 11:39:56;;;;;;;1.13;0.85;;;;;;;;;;4926941;29;20228;-82
2022/11/08 11:42:26;;;;;;;1.92;0.93;;;;;;;;;;4913759;29;20248;-81
2022/11/08 11:45:18;;;;;;;1.00;0.90;;;;;;;;;;4906144;29;20236;-81
2022/11/08 11:47:46;;;;;;;1.10;0.82;;;;;;;;;;4895708;29;20231;-83
2022/11/08 11:50:29;;;;;;;1.55;1.10;;;;;;;;;;4915623;29;20239;-81
2022/11/08 11:52:57;;;;;;;1.23;0.90;;;;;;;;;;4924461;29;20238;-80
2022/11/08 11:55:55;;;;;;;1.10;0.90;;;;;;;;;;4878307;29;20607;-84
2022/11/08 11:58:29;;;;;;;1.15;0.80;;;;;;;;;;4924664;29;20220;-77
2022/11/08 12:00:58;;;;;;;1.83;1.00;;;;;;;;;;4926649;29;20235;-82
2022/11/08 12:03:38;;;;;;;1.23;0.90;;;;;;;;;;4902614;29;20228;-83
2022/11/08 12:06:09;;;;;;;0.98;0.82;;;;;;;;;;4924843;29;20723;-80
2022/11/08 12:09:00;;;;;;;1.30;1.00;;;;;;;;;;4931201;29;20614;-83
2022/11/08 12:12:10;;;;;;;1.75;1.05;;;;;;;;;;4919229;29;20548;-81
2022/11/08 12:14:44;;;;;;;2.53;0.68;;;;;;;;;;4907975;29;20247;-83
2022/11/08 12:17:44;;;;;;;2.47;1.10;;;;;;;;;;4878232;29;20224;-83
2022/11/08 12:20:22;;;;;;;0.93;0.75;;;;;;;;;;4919169;29;20240;-83
2022/11/08 12:23:16;;;;;;;2.90;1.00;;;;;;;;;;4920510;29;20714;-82
2022/11/08 12:26:13;;;;;;;2.85;0.93;;;;;;;;;;4928835;29;20224;-83
2022/11/08 12:28:57;;;;;;;2.03;0.90;;;;;;;;;;4894840;29;20326;-85
2022/11/08 12:31:53;;;;;;;1.02;0.80;;;;;;;;;;4923695;29;20232;-81
2022/11/08 12:34:24;;;;;;;1.45;1.00;;;;;;;;;;4913822;29;20236;-82
2022/11/08 12:37:16;;;;;;;1.77;0.90;;;;;;;;;;4905122;29;20232;-81
2022/11/08 12:39:52;;;;;;;1.98;1.00;;;;;;;;;;4910599;29;20227;-81
2022/11/08 12:42:41;;;;;;;6.07;1.20;;;;;;;;;;4913274;29;20271;-81
2022/11/08 12:45:19;;;;;;;1.85;0.82;;;;;;;;;;4926437;29;20240;-81
2022/11/08 12:47:44;;;;;;;0.80;0.68;;;;;;;;;;4909116;29;20243;-80
2022/11/08 12:50:20;;;;;;;2.42;0.90;;;;;;;;;;4924224;29;20230;-82
2022/11/08 12:52:55;;;;;;;2.33;0.90;;;;;;;;;;4925314;29;20317;-83
2022/11/08 12:55:40;;;;;;;0.88;0.80;;;;;;;;;;4937284;29;20230;-79
2022/11/08 12:58:25;;;;;;;1.63;0.70;;;;;;;;;;4922210;29;20253;-79
2022/11/08 13:00:53;;;;;;;2.03;1.13;;;;;;;;;;4936300;29;20326;-81
2022/11/08 13:03:48;;;;;;;3.90;0.80;;;;;;;;;;4934457;29;20219;-83
2022/11/08 13:06:28;;;;;;;2.03;0.90;;;;;;;;;;4931195;29;20223;-80
2022/11/08 13:09:20;;;;;;;2.13;1.00;;;;;;;;;;4932555;29;20623;-83
2022/11/08 13:12:11;;;;;;;1.98;0.80;;;;;;;;;;4920971;29;20251;-82
2022/11/08 13:14:38;;;;;;;0.93;0.80;;;;;;;;;;4929406;29;20240;-81
2022/11/08 13:17:14;;;;;;;1.80;0.82;;;;;;;;;;4913536;29;20889;-80
2022/11/08 13:19:46;;;;;;;1.77;0.80;;;;;;;;;;4909930;29;20701;-81
2022/11/08 13:22:32;;;;;;;1.30;0.80;;;;;;;;;;4914412;29;20314;-79
2022/11/08 13:24:59;;;;;;;0.93;0.88;;;;;;;;;;4928853;29;20228;-82
2022/11/08 13:27:43;;;;;;;1.35;0.65;;;;;;;;;;4927681;29;20220;-80
2022/11/08 13:30:14;;;;;;;0.95;0.80;;;;;;;;;;4893087;29;20232;-83
2022/11/08 13:32:49;;;;;;;2.20;0.90;;;;;;;;;;4926718;29;20304;-82
2022/11/08 13:35:54;;;;;;;2.30;0.80;;;;;;;;;;4919000;29;20607;-82
2022/11/08 13:38:41;;;;;;;3.28;0.75;;;;;;;;;;4932282;29;20579;-83
2022/11/08 13:41:12;;;;;;;0.93;0.80;;;;;;;;;;4939513;29;20232;-83
2022/11/08 13:43:38;;;;;;;0.85;0.82;;;;;;;;;;4938939;29;20310;-85
2022/11/08 13:46:21;;;;;;;1.30;0.82;;;;;;;;;;4927227;29;20572;-83
2022/11/08 13:48:56;;;;;;;3.08;0.93;;;;;;;;;;4943204;29;20219;-84
2022/11/08 13:51:32;;;;;;;1.00;0.77;;;;;;;;;;4935001;29;20243;-83
2022/11/08 13:54:01;;;;;;;1.55;0.80;;;;;;;;;;4906430;29;20618;-84
2022/11/08 13:56:49;;;;;;;1.35;0.80;;;;;;;;;;4909650;29;20227;-84
2022/11/08 13:59:40;;;;;;;2.58;0.90;;;;;;;;;;4923091;29;20224;-83
2022/11/08 14:02:24;;;;;;;3.03;1.00;;;;;;;;;;4898572;29;20260;-84
2022/11/08 14:04:50;;;;;;;0.82;0.82;;;;;;;;;;4907235;29;20717;-85
2022/11/08 14:07:16;;;;;;;0.75;0.75;;;;;;;;;;4894302;29;20223;-85
2022/11/08 14:09:45;;;;;;;1.75;0.80;;;;;;;;;;4903980;29;20248;-84
2022/11/08 14:12:13;;;;;;;0.88;0.80;;;;;;;;;;4915325;29;20236;-84
2022/11/08 14:14:55;;;;;;;0.90;0.80;;;;;;;;;;4916572;29;20733;-85
2022/11/08 14:17:30;;;;;;;3.05;0.90;;;;;;;;;;4904203;29;20228;-83
2022/11/08 14:20:16;;;;;;;1.25;0.93;;;;;;;;;;4923544;29;20715;-84
2022/11/08 14:22:45;;;;;;;0.90;0.70;;;;;;;;;;4933030;29;20357;-84
2022/11/08 14:25:35;;;;;;;1.63;1.00;;;;;;;;;;4915709;29;20251;-85
2022/11/08 14:28:03;;;;;;;0.70;0.70;;;;;;;;;;4904044;29;20223;-83
2022/11/08 14:30:33;;;;;;;1.10;0.98;;;;;;;;;;4917203;29;20704;-84
2022/11/08 14:33:18;;;;;;;0.95;0.80;;;;;;;;;;4920019;29;20240;-84
2022/11/08 14:36:00;;;;;;;1.67;0.60;;;;;;;;;;4907884;29;20593;-84
2022/11/08 14:38:27;;;;;;;1.05;0.65;;;;;;;;;;4915007;29;20246;-86
2022/11/08 14:41:01;;;;;;;0.80;0.80;;;;;;;;;;4907809;29;20251;-84
2022/11/08 14:43:44;;;;;;;1.33;0.70;;;;;;;;;;4911509;29;20231;-83
2022/11/08 14:46:32;;;;;;;1.17;0.80;;;;;;;;;;4911618;29;20223;-83
2022/11/08 14:48:57;;;;;;;2.10;0.80;;;;;;;;;;4933595;29;20234;-84
2022/11/08 14:51:23;;;;;;;1.48;0.93;;;;;;;;;;4920597;29;20294;-85
2022/11/08 14:53:53;;;;;;;2.28;1.13;;;;;;;;;;4916313;29;20228;-83
2022/11/08 14:56:23;;;;;;;2.38;0.80;;;;;;;;;;4919361;29;20251;-82
2022/11/08 14:58:50;;;;;;;1.65;0.82;;;;;;;;;;4933818;29;20234;-83
2022/11/08 15:01:21;;;;;;;1.38;0.90;;;;;;;;;;4896912;29;20659;-83
2022/11/08 15:03:54;;;;;;;1.38;0.80;;;;;;;;;;4898674;29;20256;-84
2022/11/08 15:06:38;;;;;;;1.05;0.90;;;;;;;;;;4924354;29;21798;-83
2022/11/08 15:09:03;;;;;;;1.48;1.10;;;;;;;;;;4927971;29;20621;-83
2022/11/08 15:11:29;;;;;;;0.73;0.73;;;;;;;;;;4909418;29;20316;-83
2022/11/08 15:14:08;;;;;;;2.15;0.90;;;;;;;;;;4915551;29;20266;-81
2022/11/08 15:16:38;;;;;;;1.30;1.20;;;;;;;;;;4927368;29;20227;-83
2022/11/08 15:19:31;;;;;;;1.38;0.77;;;;;;;;;;4904985;29;20253;-83
2022/11/08 15:22:01;;;;;;;1.90;0.80;;;;;;;;;;4927380;29;20871;-82
2022/11/08 15:24:32;;;;;;;2.75;0.90;;;;;;;;;;4924966;29;20234;-84
2022/11/08 15:27:14;;;;;;;0.95;0.90;;;;;;;;;;4934877;29;20303;-84
2022/11/08 15:30:00;;;;;;;1.27;1.00;;;;;;;;;;4915933;29;20307;-85
2022/11/08 15:32:36;;;;;;;1.27;1.00;;;;;;;;;;4898006;29;20219;-84